sensor_id;sensor_type;location;lat;lon;timestamp;pressure;altitude;pressure_sealevel;temperature;humidity
9335;BME280;4706;41.844;26.082;2023-07-30T00:01:17;100411.47;;;25.51;43.39
9335;BME280;4706;41.844;26.082;2023-07-30T00:03:43;100424.34;;;25.37;44.34
9335;BME280;4706;41.844;26.082;2023-07-30T00:06:08;100424.38;;;25.12;44.91
9335;BME280;4706;41.844;26.082;2023-07-30T00:08:34;100413.94;;;24.95;45.10
9335;BME280;4706;41.844;26.082;2023-07-30T00:10:59;100416.75;;;24.91;45.98
9335;BME280;4706;41.844;26.082;2023-07-30T00:13:25;100422.75;;;25.08;45.77
9335;BME280;4706;41.844;26.082;2023-07-30T00:15:51;100418.38;;;25.17;45.84
9335;BME280;4706;41.844;26.082;2023-07-30T00:18:16;100413.09;;;25.41;45.21
9335;BME280;4706;41.844;26.082;2023-07-30T00:20:42;100422.72;;;25.54;44.69
9335;BME280;4706;41.844;26.082;2023-07-30T00:23:08;100418.28;;;25.57;44.55
9335;BME280;4706;41.844;26.082;2023-07-30T00:25:34;100421.88;;;25.57;44.92
9335;BME280;4706;41.844;26.082;2023-07-30T00:27:59;100417.16;;;25.29;45.16
9335;BME280;4706;41.844;26.082;2023-07-30T00:30:25;100424.38;;;25.12;45.64
9335;BME280;4706;41.844;26.082;2023-07-30T00:32:51;100415.94;;;25.02;45.90
9335;BME280;4706;41.844;26.082;2023-07-30T00:35:16;100425.19;;;24.99;46.09
9335;BME280;4706;41.844;26.082;2023-07-30T00:37:42;100428.41;;;25.01;46.05
9335;BME280;4706;41.844;26.082;2023-07-30T00:40:08;100419.16;;;25.04;45.92
9335;BME280;4706;41.844;26.082;2023-07-30T00:42:33;100417.97;;;25.19;45.89
9335;BME280;4706;41.844;26.082;2023-07-30T00:44:59;100419.53;;;25.38;45.30
9335;BME280;4706;41.844;26.082;2023-07-30T00:47:25;100425.13;;;25.49;45.13
9335;BME280;4706;41.844;26.082;2023-07-30T00:49:51;100422.31;;;25.49;45.14
9335;BME280;4706;41.844;26.082;2023-07-30T00:52:18;100424.34;;;25.41;45.25
9335;BME280;4706;41.844;26.082;2023-07-30T00:54:46;100419.16;;;25.32;45.39
9335;BME280;4706;41.844;26.082;2023-07-30T00:57:13;100427.19;;;25.34;45.59
9335;BME280;4706;41.844;26.082;2023-07-30T00:59:39;100415.13;;;25.23;45.44
9335;BME280;4706;41.844;26.082;2023-07-30T01:02:04;100425.59;;;25.04;46.01
9335;BME280;4706;41.844;26.082;2023-07-30T01:04:31;100422.78;;;24.58;47.48
9335;BME280;4706;41.844;26.082;2023-07-30T01:06:57;100431.53;;;24.35;48.31
9335;BME280;4706;41.844;26.082;2023-07-30T01:09:23;100432.34;;;24.32;48.47
9335;BME280;4706;41.844;26.082;2023-07-30T01:11:49;100436.00;;;24.39;48.60
9335;BME280;4706;41.844;26.082;2023-07-30T01:14:16;100441.63;;;24.50;48.24
9335;BME280;4706;41.844;26.082;2023-07-30T01:16:42;100435.59;;;24.52;48.09
9335;BME280;4706;41.844;26.082;2023-07-30T01:19:07;100435.59;;;24.44;47.98
9335;BME280;4706;41.844;26.082;2023-07-30T01:21:34;100439.19;;;24.38;47.85
9335;BME280;4706;41.844;26.082;2023-07-30T01:24:00;100438.34;;;24.23;47.99
9335;BME280;4706;41.844;26.082;2023-07-30T01:26:31;100437.16;;;24.28;47.75
9335;BME280;4706;41.844;26.082;2023-07-30T01:29:00;100436.81;;;24.43;47.21
9335;BME280;4706;41.844;26.082;2023-07-30T01:31:27;100433.59;;;24.52;46.99
9335;BME280;4706;41.844;26.082;2023-07-30T01:33:55;100432.78;;;24.44;47.25
9335;BME280;4706;41.844;26.082;2023-07-30T01:36:21;100403.38;;;24.17;47.23
9335;BME280;4706;41.844;26.082;2023-07-30T01:38:48;100426.69;;;24.24;47.59
9335;BME280;4706;41.844;26.082;2023-07-30T01:41:14;100427.09;;;24.27;47.69
9335;BME280;4706;41.844;26.082;2023-07-30T01:43:40;100420.28;;;24.31;47.54
9335;BME280;4706;41.844;26.082;2023-07-30T01:46:05;100419.88;;;24.29;47.46
9335;BME280;4706;41.844;26.082;2023-07-30T01:48:31;100416.66;;;24.27;47.89
9335;BME280;4706;41.844;26.082;2023-07-30T01:50:56;100433.19;;;24.43;47.67
9335;BME280;4706;41.844;26.082;2023-07-30T01:53:22;100428.81;;;24.60;47.36
9335;BME280;4706;41.844;26.082;2023-07-30T01:55:47;100427.97;;;24.59;47.06
9335;BME280;4706;41.844;26.082;2023-07-30T01:58:13;100430.44;;;24.71;46.95
9335;BME280;4706;41.844;26.082;2023-07-30T02:00:39;100428.81;;;24.60;47.60
9335;BME280;4706;41.844;26.082;2023-07-30T02:03:05;100436.03;;;24.61;47.39
9335;BME280;4706;41.844;26.082;2023-07-30T02:05:30;100434.44;;;24.56;47.14
9335;BME280;4706;41.844;26.082;2023-07-30T02:07:57;100438.03;;;24.57;46.91
9335;BME280;4706;41.844;26.082;2023-07-30T02:10:24;100436.03;;;24.61;47.03
9335;BME280;4706;41.844;26.082;2023-07-30T02:12:50;100444.06;;;24.62;46.79
9335;BME280;4706;41.844;26.082;2023-07-30T02:15:16;100439.63;;;24.54;46.59
9335;BME280;4706;41.844;26.082;2023-07-30T02:17:41;100435.25;;;24.60;46.49
9335;BME280;4706;41.844;26.082;2023-07-30T02:20:08;100443.25;;;24.58;46.62
9335;BME280;4706;41.844;26.082;2023-07-30T02:22:34;100438.81;;;24.43;46.96
9335;BME280;4706;41.844;26.082;2023-07-30T02:24:59;100442.44;;;24.47;47.22
9335;BME280;4706;41.844;26.082;2023-07-30T02:27:25;100444.03;;;24.52;46.80
9335;BME280;4706;41.844;26.082;2023-07-30T02:29:50;100448.06;;;24.47;47.29
9335;BME280;4706;41.844;26.082;2023-07-30T02:32:16;100443.56;;;24.32;47.47
9335;BME280;4706;41.844;26.082;2023-07-30T02:34:41;100441.56;;;24.36;47.36
9335;BME280;4706;41.844;26.082;2023-07-30T02:37:07;100441.19;;;24.37;47.46
9335;BME280;4706;41.844;26.082;2023-07-30T02:39:32;100446.47;;;24.46;47.57
9335;BME280;4706;41.844;26.082;2023-07-30T02:41:58;100450.47;;;24.41;47.02
9335;BME280;4706;41.844;26.082;2023-07-30T02:44:23;100441.19;;;24.30;47.52
9335;BME280;4706;41.844;26.082;2023-07-30T02:46:49;100451.59;;;24.37;47.07
9335;BME280;4706;41.844;26.082;2023-07-30T02:49:15;100441.19;;;24.37;47.09
9335;BME280;4706;41.844;26.082;2023-07-30T02:51:40;100449.66;;;24.44;46.84
9335;BME280;4706;41.844;26.082;2023-07-30T02:54:07;100454.91;;;24.53;46.76
9335;BME280;4706;41.844;26.082;2023-07-30T02:56:33;100454.50;;;24.51;46.78
9335;BME280;4706;41.844;26.082;2023-07-30T02:58:59;100462.13;;;24.51;46.95
9335;BME280;4706;41.844;26.082;2023-07-30T03:01:24;100450.88;;;24.58;46.90
9335;BME280;4706;41.844;26.082;2023-07-30T03:03:51;100454.53;;;24.76;46.53
9335;BME280;4706;41.844;26.082;2023-07-30T03:06:16;100452.91;;;24.82;46.31
9335;BME280;4706;41.844;26.082;2023-07-30T03:08:45;100455.72;;;24.82;46.37
9335;BME280;4706;41.844;26.082;2023-07-30T03:11:10;100450.50;;;24.84;46.61
9335;BME280;4706;41.844;26.082;2023-07-30T03:13:36;100456.94;;;24.74;46.28
9335;BME280;4706;41.844;26.082;2023-07-30T03:16:01;100465.38;;;24.81;46.65
9335;BME280;4706;41.844;26.082;2023-07-30T03:18:27;100458.94;;;24.77;46.25
9335;BME280;4706;41.844;26.082;2023-07-30T03:20:58;100467.38;;;24.74;46.46
9335;BME280;4706;41.844;26.082;2023-07-30T03:23:24;100458.56;;;24.71;46.26
9335;BME280;4706;41.844;26.082;2023-07-30T03:25:49;100468.19;;;24.74;46.49
9335;BME280;4706;41.844;26.082;2023-07-30T03:28:15;100470.59;;;24.76;46.50
9335;BME280;4706;41.844;26.082;2023-07-30T03:30:40;100472.19;;;24.73;46.68
9335;BME280;4706;41.844;26.082;2023-07-30T03:33:06;100480.63;;;24.66;46.76
9335;BME280;4706;41.844;26.082;2023-07-30T03:35:31;100465.75;;;24.62;46.67
9335;BME280;4706;41.844;26.082;2023-07-30T03:37:57;100469.78;;;24.61;46.67
9335;BME280;4706;41.844;26.082;2023-07-30T03:40:23;100478.59;;;24.63;47.32
9335;BME280;4706;41.844;26.082;2023-07-30T03:42:49;100480.25;;;24.67;47.08
9335;BME280;4706;41.844;26.082;2023-07-30T03:45:14;100484.25;;;24.77;46.80
9335;BME280;4706;41.844;26.082;2023-07-30T03:47:40;100490.69;;;24.78;47.27
9335;BME280;4706;41.844;26.082;2023-07-30T03:50:05;100488.69;;;24.82;46.79
9335;BME280;4706;41.844;26.082;2023-07-30T03:52:31;100487.88;;;24.88;46.35
9335;BME280;4706;41.844;26.082;2023-07-30T03:54:57;100482.25;;;24.88;46.38
9335;BME280;4706;41.844;26.082;2023-07-30T03:57:22;100495.94;;;25.04;46.46
9335;BME280;4706;41.844;26.082;2023-07-30T03:59:47;100491.53;;;25.07;46.06
9335;BME280;4706;41.844;26.082;2023-07-30T04:02:13;100487.13;;;25.16;45.78
9335;BME280;4706;41.844;26.082;2023-07-30T04:04:41;100492.34;;;25.25;45.77
9335;BME280;4706;41.844;26.082;2023-07-30T04:07:09;100494.38;;;25.39;45.59
9335;BME280;4706;41.844;26.082;2023-07-30T04:09:34;100484.69;;;25.47;45.47
9335;BME280;4706;41.844;26.082;2023-07-30T04:11:59;100487.44;;;25.65;45.09
9335;BME280;4706;41.844;26.082;2023-07-30T04:14:25;100486.66;;;25.68;45.19
9335;BME280;4706;41.844;26.082;2023-07-30T04:16:51;100489.88;;;25.66;44.98
9335;BME280;4706;41.844;26.082;2023-07-30T04:19:16;100487.03;;;25.74;44.99
9335;BME280;4706;41.844;26.082;2023-07-30T04:21:42;100490.22;;;25.94;45.22
9335;BME280;4706;41.844;26.082;2023-07-30T04:24:07;100485.00;;;25.92;45.34
9335;BME280;4706;41.844;26.082;2023-07-30T04:26:33;100503.03;;;26.12;45.40
9335;BME280;4706;41.844;26.082;2023-07-30T04:28:58;100503.75;;;26.34;44.97
9335;BME280;4706;41.844;26.082;2023-07-30T04:31:24;100501.69;;;26.49;44.47
9335;BME280;4706;41.844;26.082;2023-07-30T04:33:49;100507.28;;;26.60;44.10
9335;BME280;4706;41.844;26.082;2023-07-30T04:36:15;100504.38;;;26.74;44.28
9335;BME280;4706;41.844;26.082;2023-07-30T04:38:40;100513.13;;;26.87;43.67
9335;BME280;4706;41.844;26.082;2023-07-30T04:41:06;100503.88;;;26.86;43.59
9335;BME280;4706;41.844;26.082;2023-07-30T04:43:32;100499.78;;;26.95;43.15
9335;BME280;4706;41.844;26.082;2023-07-30T04:45:57;100502.97;;;26.97;43.17
9335;BME280;4706;41.844;26.082;2023-07-30T04:48:23;100507.03;;;26.96;42.99
9335;BME280;4706;41.844;26.082;2023-07-30T04:50:48;100512.16;;;27.08;42.83
9335;BME280;4706;41.844;26.082;2023-07-30T04:53:14;100507.25;;;27.19;42.78
9335;BME280;4706;41.844;26.082;2023-07-30T04:55:41;100512.31;;;27.42;42.40
9335;BME280;4706;41.844;26.082;2023-07-30T04:58:06;100518.97;;;27.63;41.95
9335;BME280;4706;41.844;26.082;2023-07-30T05:00:32;100513.25;;;27.70;41.82
9335;BME280;4706;41.844;26.082;2023-07-30T05:02:58;100509.19;;;27.74;41.61
9335;BME280;4706;41.844;26.082;2023-07-30T05:05:23;100510.72;;;27.82;41.58
9335;BME280;4706;41.844;26.082;2023-07-30T05:07:49;100522.44;;;27.81;42.01
9335;BME280;4706;41.844;26.082;2023-07-30T05:10:15;100532.81;;;27.95;41.90
9335;BME280;4706;41.844;26.082;2023-07-30T05:12:41;100527.44;;;28.04;41.88
9335;BME280;4706;41.844;26.082;2023-07-30T05:15:07;100519.09;;;28.24;41.10
9335;BME280;4706;41.844;26.082;2023-07-30T05:17:33;100523.66;;;28.18;40.85
9335;BME280;4706;41.844;26.082;2023-07-30T05:19:58;100522.06;;;28.13;41.33
9335;BME280;4706;41.844;26.082;2023-07-30T05:22:24;100532.88;;;28.22;41.04
9335;BME280;4706;41.844;26.082;2023-07-30T05:24:50;100533.19;;;28.27;40.68
9335;BME280;4706;41.844;26.082;2023-07-30T05:27:16;100530.66;;;28.40;40.51
9335;BME280;4706;41.844;26.082;2023-07-30T05:29:41;100525.00;;;28.40;40.62
9335;BME280;4706;41.844;26.082;2023-07-30T05:32:08;100536.16;;;28.51;40.18
9335;BME280;4706;41.844;26.082;2023-07-30T05:34:33;100536.31;;;28.40;40.27
9335;BME280;4706;41.844;26.082;2023-07-30T05:36:59;100527.84;;;28.40;40.61
9335;BME280;4706;41.844;26.082;2023-07-30T05:39:25;100531.59;;;28.61;40.51
9335;BME280;4706;41.844;26.082;2023-07-30T05:41:51;100534.13;;;28.82;40.08
9335;BME280;4706;41.844;26.082;2023-07-30T05:44:17;100528.75;;;28.88;39.97
9335;BME280;4706;41.844;26.082;2023-07-30T05:46:42;100524.22;;;28.94;39.95
9335;BME280;4706;41.844;26.082;2023-07-30T05:49:08;100526.50;;;29.06;39.71
9335;BME280;4706;41.844;26.082;2023-07-30T05:51:34;100527.34;;;29.03;39.51
9335;BME280;4706;41.844;26.082;2023-07-30T05:53:59;100521.50;;;29.14;39.86
9335;BME280;4706;41.844;26.082;2023-07-30T05:56:24;100526.38;;;29.37;40.14
9335;BME280;4706;41.844;26.082;2023-07-30T05:58:50;100521.44;;;29.41;39.14
9335;BME280;4706;41.844;26.082;2023-07-30T06:01:16;100527.84;;;29.21;39.74
9335;BME280;4706;41.844;26.082;2023-07-30T06:03:42;100526.50;;;29.06;40.26
9335;BME280;4706;41.844;26.082;2023-07-30T06:06:08;100515.47;;;29.35;39.96
9335;BME280;4706;41.844;26.082;2023-07-30T06:08:33;100518.19;;;29.42;39.71
9335;BME280;4706;41.844;26.082;2023-07-30T06:11:02;100517.34;;;29.69;39.19
9335;BME280;4706;41.844;26.082;2023-07-30T06:13:28;100509.88;;;29.98;38.10
9335;BME280;4706;41.844;26.082;2023-07-30T06:15:54;100519.69;;;30.14;38.32
9335;BME280;4706;41.844;26.082;2023-07-30T06:18:20;100510.69;;;30.19;38.11
9335;BME280;4706;41.844;26.082;2023-07-30T06:20:46;100511.72;;;30.29;38.10
9335;BME280;4706;41.844;26.082;2023-07-30T06:23:11;100509.06;;;30.38;37.86
9335;BME280;4706;41.844;26.082;2023-07-30T06:25:37;100517.34;;;30.48;37.33
9335;BME280;4706;41.844;26.082;2023-07-30T06:28:02;100508.03;;;30.48;37.29
9335;BME280;4706;41.844;26.082;2023-07-30T06:30:28;100504.41;;;30.47;37.39
9335;BME280;4706;41.844;26.082;2023-07-30T06:32:54;100509.31;;;30.63;37.58
9335;BME280;4706;41.844;26.082;2023-07-30T06:35:19;100504.47;;;30.80;36.83
9335;BME280;4706;41.844;26.082;2023-07-30T06:37:45;100496.88;;;31.10;36.82
9335;BME280;4706;41.844;26.082;2023-07-30T06:40:10;100499.09;;;31.18;36.17
9335;BME280;4706;41.844;26.082;2023-07-30T06:42:36;100493.13;;;31.29;36.20
9335;BME280;4706;41.844;26.082;2023-07-30T06:45:02;100497.75;;;31.39;35.91
9335;BME280;4706;41.844;26.082;2023-07-30T06:47:27;100487.78;;;31.64;35.45
9335;BME280;4706;41.844;26.082;2023-07-30T06:49:53;100481.19;;;31.96;34.52
9335;BME280;4706;41.844;26.082;2023-07-30T06:52:18;100476.91;;;31.75;34.64
9335;BME280;4706;41.844;26.082;2023-07-30T06:54:44;100478.22;;;31.87;34.90
9335;BME280;4706;41.844;26.082;2023-07-30T06:57:09;100485.69;;;32.10;34.38
9335;BME280;4706;41.844;26.082;2023-07-30T06:59:35;100475.38;;;31.87;34.73
9335;BME280;4706;41.844;26.082;2023-07-30T07:02:01;100474.88;;;32.05;34.36
9335;BME280;4706;41.844;26.082;2023-07-30T07:04:26;100466.94;;;32.25;34.02
9335;BME280;4706;41.844;26.082;2023-07-30T07:06:52;100457.69;;;32.34;34.26
9335;BME280;4706;41.844;26.082;2023-07-30T07:09:17;100456.81;;;32.37;33.89
9335;BME280;4706;41.844;26.082;2023-07-30T07:11:43;100459.34;;;32.60;33.59
9335;BME280;4706;41.844;26.082;2023-07-30T07:14:08;100466.53;;;32.78;32.96
9335;BME280;4706;41.844;26.082;2023-07-30T07:16:34;100460.38;;;32.67;33.18
9335;BME280;4706;41.844;26.082;2023-07-30T07:18:59;100461.72;;;32.87;32.94
9335;BME280;4706;41.844;26.082;2023-07-30T07:21:25;100460.81;;;33.03;33.04
9335;BME280;4706;41.844;26.082;2023-07-30T07:23:51;100458.41;;;33.15;32.71
9335;BME280;4706;41.844;26.082;2023-07-30T07:26:17;100449.72;;;33.18;32.31
9335;BME280;4706;41.844;26.082;2023-07-30T07:28:42;100447.19;;;33.33;32.35
9335;BME280;4706;41.844;26.082;2023-07-30T07:31:08;100439.75;;;33.48;32.44
9335;BME280;4706;41.844;26.082;2023-07-30T07:33:33;100443.78;;;33.60;31.26
9335;BME280;4706;41.844;26.082;2023-07-30T07:36:08;100446.66;;;33.82;31.29
9335;BME280;4706;41.844;26.082;2023-07-30T07:38:34;100441.06;;;33.78;31.33
9335;BME280;4706;41.844;26.082;2023-07-30T07:41:01;100436.34;;;33.63;31.97
9335;BME280;4706;41.844;26.082;2023-07-30T07:43:27;100421.81;;;33.92;31.41
9335;BME280;4706;41.844;26.082;2023-07-30T07:45:53;100438.69;;;34.30;30.36
9335;BME280;4706;41.844;26.082;2023-07-30T07:48:18;100426.78;;;34.53;30.03
9335;BME280;4706;41.844;26.082;2023-07-30T07:50:45;100423.19;;;34.71;29.46
9335;BME280;4706;41.844;26.082;2023-07-30T07:53:10;100428.44;;;34.82;29.26
9335;BME280;4706;41.844;26.082;2023-07-30T07:55:36;100422.78;;;34.91;28.41
9335;BME280;4706;41.844;26.082;2023-07-30T07:58:01;100423.44;;;35.04;28.53
9335;BME280;4706;41.844;26.082;2023-07-30T08:00:27;100429.97;;;35.14;27.53
9335;BME280;4706;41.844;26.082;2023-07-30T08:02:52;100416.97;;;35.22;27.44
9335;BME280;4706;41.844;26.082;2023-07-30T08:05:18;100419.16;;;35.27;27.94
9335;BME280;4706;41.844;26.082;2023-07-30T08:07:47;100404.72;;;35.31;28.38
9335;BME280;4706;41.844;26.082;2023-07-30T08:10:13;100413.00;;;35.57;28.35
9335;BME280;4706;41.844;26.082;2023-07-30T08:12:38;100416.16;;;35.86;27.78
9335;BME280;4706;41.844;26.082;2023-07-30T08:15:04;100417.53;;;36.18;26.85
9335;BME280;4706;41.844;26.082;2023-07-30T08:17:30;100412.03;;;36.39;26.29
9335;BME280;4706;41.844;26.082;2023-07-30T08:19:55;100414.94;;;36.63;26.03
9335;BME280;4706;41.844;26.082;2023-07-30T08:22:21;100413.19;;;36.89;25.68
9335;BME280;4706;41.844;26.082;2023-07-30T08:24:46;100407.13;;;36.97;25.16
9335;BME280;4706;41.844;26.082;2023-07-30T08:27:12;100415.72;;;36.30;25.36
9335;BME280;4706;41.844;26.082;2023-07-30T08:29:37;100410.97;;;36.27;25.41
9335;BME280;4706;41.844;26.082;2023-07-30T08:32:03;100401.19;;;36.43;25.15
9335;BME280;4706;41.844;26.082;2023-07-30T08:34:28;100393.63;;;36.64;25.37
9335;BME280;4706;41.844;26.082;2023-07-30T08:36:54;100392.00;;;36.72;24.98
9335;BME280;4706;41.844;26.082;2023-07-30T08:39:19;100391.63;;;36.79;24.75
9335;BME280;4706;41.844;26.082;2023-07-30T08:41:45;100391.88;;;37.14;25.22
9335;BME280;4706;41.844;26.082;2023-07-30T08:44:12;100383.47;;;37.50;24.50
9335;BME280;4706;41.844;26.082;2023-07-30T08:46:38;100386.66;;;37.81;24.55
9335;BME280;4706;41.844;26.082;2023-07-30T08:49:04;100371.59;;;37.86;23.66
9335;BME280;4706;41.844;26.082;2023-07-30T08:51:31;100382.63;;;37.88;23.95
9335;BME280;4706;41.844;26.082;2023-07-30T08:54:00;100376.34;;;37.75;24.51
9335;BME280;4706;41.844;26.082;2023-07-30T08:56:26;100375.75;;;37.56;24.50
9335;BME280;4706;41.844;26.082;2023-07-30T08:58:52;100373.78;;;37.23;24.69
9335;BME280;4706;41.844;26.082;2023-07-30T09:01:27;100369.28;;;37.31;24.52
9335;BME280;4706;41.844;26.082;2023-07-30T09:03:57;100367.75;;;37.60;24.35
9335;BME280;4706;41.844;26.082;2023-07-30T09:06:25;100359.44;;;37.62;24.21
9335;BME280;4706;41.844;26.082;2023-07-30T09:08:51;100351.91;;;37.79;24.22
9335;BME280;4706;41.844;26.082;2023-07-30T09:11:16;100357.66;;;38.09;23.41
9335;BME280;4706;41.844;26.082;2023-07-30T09:13:42;100363.94;;;38.43;22.49
9335;BME280;4706;41.844;26.082;2023-07-30T09:16:12;100351.16;;;38.29;21.90
9335;BME280;4706;41.844;26.082;2023-07-30T09:18:42;100356.53;;;38.36;22.72
9335;BME280;4706;41.844;26.082;2023-07-30T09:21:10;100357.78;;;38.50;21.67
9335;BME280;4706;41.844;26.082;2023-07-30T09:23:46;100353.53;;;38.66;21.86
9335;BME280;4706;41.844;26.082;2023-07-30T09:26:13;100346.34;;;38.91;21.79
9335;BME280;4706;41.844;26.082;2023-07-30T09:28:41;100346.31;;;39.11;21.49
9335;BME280;4706;41.844;26.082;2023-07-30T09:31:08;100339.75;;;39.10;21.27
9335;BME280;4706;41.844;26.082;2023-07-30T09:33:34;100325.09;;;39.29;21.25
9335;BME280;4706;41.844;26.082;2023-07-30T09:36:04;100324.34;;;39.34;20.90
9335;BME280;4706;41.844;26.082;2023-07-30T09:38:30;100321.47;;;39.34;20.62
9335;BME280;4706;41.844;26.082;2023-07-30T09:41:02;100319.94;;;39.65;20.83
9335;BME280;4706;41.844;26.082;2023-07-30T09:43:29;100319.41;;;39.14;21.30
9335;BME280;4706;41.844;26.082;2023-07-30T09:46:04;100314.03;;;38.81;21.44
9335;BME280;4706;41.844;26.082;2023-07-30T09:48:31;100309.56;;;39.00;21.64
9335;BME280;4706;41.844;26.082;2023-07-30T09:51:01;100299.72;;;39.27;21.60
9335;BME280;4706;41.844;26.082;2023-07-30T09:53:32;100299.09;;;39.75;21.08
9335;BME280;4706;41.844;26.082;2023-07-30T09:56:05;100307.28;;;40.14;20.69
9335;BME280;4706;41.844;26.082;2023-07-30T09:58:33;100295.00;;;40.19;20.19
9335;BME280;4706;41.844;26.082;2023-07-30T10:01:03;100286.56;;;40.10;20.62
9335;BME280;4706;41.844;26.082;2023-07-30T10:03:29;100284.06;;;40.29;20.35
9335;BME280;4706;41.844;26.082;2023-07-30T10:06:02;100279.34;;;40.32;20.19
9335;BME280;4706;41.844;26.082;2023-07-30T10:08:30;100277.22;;;40.26;20.23
9335;BME280;4706;41.844;26.082;2023-07-30T10:10:57;100276.22;;;40.29;20.44
9335;BME280;4706;41.844;26.082;2023-07-30T10:13:24;100266.56;;;40.38;20.59
9335;BME280;4706;41.844;26.082;2023-07-30T10:15:50;100268.53;;;40.69;20.60
9335;BME280;4706;41.844;26.082;2023-07-30T10:18:16;100262.47;;;40.56;20.88
9335;BME280;4706;41.844;26.082;2023-07-30T10:20:52;100252.97;;;40.44;19.71
9335;BME280;4706;41.844;26.082;2023-07-30T10:23:18;100257.50;;;40.57;19.98
9335;BME280;4706;41.844;26.082;2023-07-30T10:25:46;100243.78;;;40.46;19.61
9335;BME280;4706;41.844;26.082;2023-07-30T10:30:58;100241.78;;;40.58;19.66
9335;BME280;4706;41.844;26.082;2023-07-30T10:33:24;100241.41;;;40.39;19.74
9335;BME280;4706;41.844;26.082;2023-07-30T10:36:10;100227.50;;;39.89;20.73
9335;BME280;4706;41.844;26.082;2023-07-30T10:38:35;100232.53;;;39.99;20.27
9335;BME280;4706;41.844;26.082;2023-07-30T10:41:04;100227.41;;;40.20;20.40
9335;BME280;4706;41.844;26.082;2023-07-30T10:43:32;100225.75;;;40.08;19.86
9335;BME280;4706;41.844;26.082;2023-07-30T10:45:59;100206.63;;;40.05;20.06
9335;BME280;4706;41.844;26.082;2023-07-30T10:50:59;100218.88;;;39.57;20.69
9335;BME280;4706;41.844;26.082;2023-07-30T10:53:25;100210.38;;;39.74;20.42
9335;BME280;4706;41.844;26.082;2023-07-30T10:55:50;100208.41;;;39.59;20.51
9335;BME280;4706;41.844;26.082;2023-07-30T10:58:17;100209.09;;;39.49;21.00
9335;BME280;4706;41.844;26.082;2023-07-30T11:00:43;100209.91;;;39.81;20.54
9335;BME280;4706;41.844;26.082;2023-07-30T11:03:08;100191.56;;;40.27;20.33
9335;BME280;4706;41.844;26.082;2023-07-30T11:05:38;100196.72;;;40.60;20.10
9335;BME280;4706;41.844;26.082;2023-07-30T11:08:03;100198.56;;;40.69;20.10
9335;BME280;4706;41.844;26.082;2023-07-30T11:10:29;100200.91;;;40.59;20.18
9335;BME280;4706;41.844;26.082;2023-07-30T11:12:54;100193.16;;;40.28;20.49
9335;BME280;4706;41.844;26.082;2023-07-30T11:15:20;100191.31;;;40.25;20.80
9335;BME280;4706;41.844;26.082;2023-07-30T11:17:45;100191.44;;;39.67;20.94
9335;BME280;4706;41.844;26.082;2023-07-30T11:20:27;100186.25;;;39.71;20.94
9335;BME280;4706;41.844;26.082;2023-07-30T11:22:55;100178.84;;;39.59;20.17
9335;BME280;4706;41.844;26.082;2023-07-30T11:25:20;100183.25;;;39.54;21.12
9335;BME280;4706;41.844;26.082;2023-07-30T11:27:50;100177.31;;;40.06;20.33
9335;BME280;4706;41.844;26.082;2023-07-30T11:30:16;100165.09;;;40.17;19.73
9335;BME280;4706;41.844;26.082;2023-07-30T11:32:42;100173.47;;;40.21;19.71
9335;BME280;4706;41.844;26.082;2023-07-30T11:35:08;100161.53;;;40.45;19.75
9335;BME280;4706;41.844;26.082;2023-07-30T11:37:34;100166.81;;;40.58;19.89
9335;BME280;4706;41.844;26.082;2023-07-30T11:40:04;100163.44;;;40.59;20.03
9335;BME280;4706;41.844;26.082;2023-07-30T11:42:30;100154.94;;;40.33;19.82
9335;BME280;4706;41.844;26.082;2023-07-30T11:44:56;100152.97;;;40.08;20.47
9335;BME280;4706;41.844;26.082;2023-07-30T11:47:22;100149.69;;;39.83;20.55
9335;BME280;4706;41.844;26.082;2023-07-30T11:49:57;100141.81;;;39.78;20.51
9335;BME280;4706;41.844;26.082;2023-07-30T11:52:23;100136.44;;;39.59;20.25
9335;BME280;4706;41.844;26.082;2023-07-30T11:55:02;100146.88;;;39.51;20.69
9335;BME280;4706;41.844;26.082;2023-07-30T11:57:34;100150.06;;;39.59;20.56
9335;BME280;4706;41.844;26.082;2023-07-30T12:00:00;100142.59;;;39.73;20.82
9335;BME280;4706;41.844;26.082;2023-07-30T12:02:26;100137.50;;;39.62;20.79
9335;BME280;4706;41.844;26.082;2023-07-30T12:04:51;100138.94;;;39.72;20.93
9335;BME280;4706;41.844;26.082;2023-07-30T12:07:24;100134.09;;;39.58;21.07
9335;BME280;4706;41.844;26.082;2023-07-30T12:09:50;100139.00;;;39.52;20.54
9335;BME280;4706;41.844;26.082;2023-07-30T12:12:16;100126.16;;;39.47;20.83
9335;BME280;4706;41.844;26.082;2023-07-30T12:14:53;100131.09;;;39.41;21.37
9335;BME280;4706;41.844;26.082;2023-07-30T12:17:18;100125.63;;;39.43;21.02
9335;BME280;4706;41.844;26.082;2023-07-30T12:19:44;100111.06;;;39.58;21.18
9335;BME280;4706;41.844;26.082;2023-07-30T12:22:10;100112.63;;;39.53;20.34
9335;BME280;4706;41.844;26.082;2023-07-30T12:24:35;100116.28;;;39.59;20.27
9335;BME280;4706;41.844;26.082;2023-07-30T12:27:01;100114.59;;;39.42;20.95
9335;BME280;4706;41.844;26.082;2023-07-30T12:29:27;100101.75;;;39.31;20.57
9335;BME280;4706;41.844;26.082;2023-07-30T12:31:52;100104.16;;;39.39;21.14
9335;BME280;4706;41.844;26.082;2023-07-30T12:34:22;100103.50;;;39.66;20.47
9335;BME280;4706;41.844;26.082;2023-07-30T12:36:48;100089.75;;;39.81;20.55
9335;BME280;4706;41.844;26.082;2023-07-30T12:39:14;100095.06;;;40.05;20.52
9335;BME280;4706;41.844;26.082;2023-07-30T12:41:39;100079.06;;;39.93;20.31
9335;BME280;4706;41.844;26.082;2023-07-30T12:44:04;100082.75;;;39.99;20.88
9335;BME280;4706;41.844;26.082;2023-07-30T12:46:31;100077.81;;;40.11;21.12
9335;BME280;4706;41.844;26.082;2023-07-30T12:48:58;100071.56;;;40.13;20.61
9335;BME280;4706;41.844;26.082;2023-07-30T12:51:29;100062.16;;;40.18;19.78
9335;BME280;4706;41.844;26.082;2023-07-30T12:53:55;100060.81;;;40.13;19.97
9335;BME280;4706;41.844;26.082;2023-07-30T12:56:21;100073.59;;;40.01;20.56
9335;BME280;4706;41.844;26.082;2023-07-30T12:58:46;100057.06;;;39.42;21.24
9335;BME280;4706;41.844;26.082;2023-07-30T13:01:12;100062.56;;;39.08;21.37